sensor_id;sensor_type;location;lat;lon;timestamp;P1;durP1;ratioP1;P2;durP2;ratioP2
63193;SDS011;49289;51.670;5.624;2023-04-16T00:00:36;7.90;;;2.70;;
63193;SDS011;49289;51.670;5.624;2023-04-16T00:02:23;7.30;;;2.80;;
63193;SDS011;49289;51.670;5.624;2023-04-16T00:04:12;9.70;;;3.10;;
63193;SDS011;49289;51.670;5.624;2023-04-16T00:06:00;8.30;;;2.20;;
63193;SDS011;49289;51.670;5.624;2023-04-16T00:07:47;10.10;;;2.70;;
63193;SDS011;49289;51.670;5.624;2023-04-16T00:09:34;7.70;;;2.50;;
63193;SDS011;49289;51.670;5.624;2023-04-16T00:11:21;10.70;;;3.00;;
63193;SDS011;49289;51.670;5.624;2023-04-16T00:13:08;8.10;;;2.80;;
63193;SDS011;49289;51.670;5.624;2023-04-16T00:14:57;9.20;;;2.70;;
63193;SDS011;49289;51.670;5.624;2023-04-16T00:16:45;8.90;;;2.70;;
63193;SDS011;49289;51.670;5.624;2023-04-16T00:18:33;10.80;;;3.30;;
63193;SDS011;49289;51.670;5.624;2023-04-16T00:20:21;8.20;;;2.90;;
63193;SDS011;49289;51.670;5.624;2023-04-16T00:22:08;10.30;;;2.80;;
63193;SDS011;49289;51.670;5.624;2023-04-16T00:23:55;11.40;;;3.30;;
63193;SDS011;49289;51.670;5.624;2023-04-16T00:25:42;8.50;;;3.00;;
63193;SDS011;49289;51.670;5.624;2023-04-16T00:27:29;10.70;;;3.10;;
63193;SDS011;49289;51.670;5.624;2023-04-16T00:29:16;11.80;;;2.90;;
63193;SDS011;49289;51.670;5.624;2023-04-16T00:31:03;8.50;;;3.00;;
63193;SDS011;49289;51.670;5.624;2023-04-16T00:32:50;9.90;;;3.30;;
63193;SDS011;49289;51.670;5.624;2023-04-16T00:34:37;9.90;;;3.10;;
63193;SDS011;49289;51.670;5.624;2023-04-16T00:36:25;9.20;;;3.40;;
63193;SDS011;49289;51.670;5.624;2023-04-16T00:38:13;9.00;;;2.90;;
63193;SDS011;49289;51.670;5.624;2023-04-16T00:40:00;8.00;;;3.20;;
63193;SDS011;49289;51.670;5.624;2023-04-16T00:41:48;10.70;;;3.30;;
63193;SDS011;49289;51.670;5.624;2023-04-16T00:43:35;9.10;;;3.20;;
63193;SDS011;49289;51.670;5.624;2023-04-16T00:45:22;11.00;;;3.50;;
63193;SDS011;49289;51.670;5.624;2023-04-16T00:47:09;10.70;;;3.50;;
63193;SDS011;49289;51.670;5.624;2023-04-16T00:48:56;10.30;;;3.50;;
63193;SDS011;49289;51.670;5.624;2023-04-16T00:50:43;8.80;;;3.60;;
63193;SDS011;49289;51.670;5.624;2023-04-16T00:52:30;10.20;;;4.10;;
63193;SDS011;49289;51.670;5.624;2023-04-16T00:54:17;10.30;;;3.90;;
63193;SDS011;49289;51.670;5.624;2023-04-16T00:56:04;10.90;;;3.90;;
63193;SDS011;49289;51.670;5.624;2023-04-16T00:57:36;11.40;;;3.80;;
63193;SDS011;49289;51.670;5.624;2023-04-16T00:59:23;10.60;;;3.90;;
63193;SDS011;49289;51.670;5.624;2023-04-16T01:01:10;12.20;;;3.90;;
63193;SDS011;49289;51.670;5.624;2023-04-16T01:02:58;14.30;;;4.00;;
63193;SDS011;49289;51.670;5.624;2023-04-16T01:04:46;9.10;;;3.80;;
63193;SDS011;49289;51.670;5.624;2023-04-16T01:06:34;11.60;;;3.70;;
63193;SDS011;49289;51.670;5.624;2023-04-16T01:08:22;15.30;;;3.80;;
63193;SDS011;49289;51.670;5.624;2023-04-16T01:10:09;11.70;;;3.90;;
63193;SDS011;49289;51.670;5.624;2023-04-16T01:11:56;10.20;;;4.10;;
63193;SDS011;49289;51.670;5.624;2023-04-16T01:13:43;8.70;;;3.90;;
63193;SDS011;49289;51.670;5.624;2023-04-16T01:15:30;16.50;;;4.10;;
63193;SDS011;49289;51.670;5.624;2023-04-16T01:17:17;14.90;;;4.60;;
63193;SDS011;49289;51.670;5.624;2023-04-16T01:19:04;13.70;;;4.10;;
63193;SDS011;49289;51.670;5.624;2023-04-16T01:20:51;11.90;;;3.70;;
63193;SDS011;49289;51.670;5.624;2023-04-16T01:22:38;12.50;;;4.00;;
63193;SDS011;49289;51.670;5.624;2023-04-16T01:24:25;14.30;;;4.30;;
63193;SDS011;49289;51.670;5.624;2023-04-16T01:26:12;8.40;;;4.10;;
63193;SDS011;49289;51.670;5.624;2023-04-16T01:27:59;10.30;;;4.10;;
63193;SDS011;49289;51.670;5.624;2023-04-16T01:29:46;10.20;;;4.10;;
63193;SDS011;49289;51.670;5.624;2023-04-16T01:31:33;10.30;;;4.30;;
63193;SDS011;49289;51.670;5.624;2023-04-16T01:33:20;14.70;;;4.90;;
63193;SDS011;49289;51.670;5.624;2023-04-16T01:35:07;10.70;;;4.60;;
63193;SDS011;49289;51.670;5.624;2023-04-16T01:36:54;8.70;;;4.20;;
63193;SDS011;49289;51.670;5.624;2023-04-16T01:38:41;9.70;;;4.20;;
63193;SDS011;49289;51.670;5.624;2023-04-16T01:40:28;9.30;;;4.80;;
63193;SDS011;49289;51.670;5.624;2023-04-16T01:42:15;12.30;;;4.80;;
63193;SDS011;49289;51.670;5.624;2023-04-16T01:44:02;11.40;;;4.90;;
63193;SDS011;49289;51.670;5.624;2023-04-16T01:45:49;10.00;;;4.60;;
63193;SDS011;49289;51.670;5.624;2023-04-16T01:47:36;13.00;;;4.60;;
63193;SDS011;49289;51.670;5.624;2023-04-16T01:49:23;13.20;;;4.40;;
63193;SDS011;49289;51.670;5.624;2023-04-16T01:51:11;9.90;;;4.10;;
63193;SDS011;49289;51.670;5.624;2023-04-16T01:52:58;10.40;;;4.60;;
63193;SDS011;49289;51.670;5.624;2023-04-16T01:54:45;11.30;;;4.80;;
63193;SDS011;49289;51.670;5.624;2023-04-16T01:56:32;8.70;;;4.30;;
63193;SDS011;49289;51.670;5.624;2023-04-16T01:58:19;11.30;;;4.60;;
63193;SDS011;49289;51.670;5.624;2023-04-16T02:00:06;13.60;;;4.60;;
63193;SDS011;49289;51.670;5.624;2023-04-16T02:01:54;11.50;;;4.50;;
63193;SDS011;49289;51.670;5.624;2023-04-16T02:03:42;10.50;;;4.40;;
63193;SDS011;49289;51.670;5.624;2023-04-16T02:05:30;9.40;;;4.20;;
63193;SDS011;49289;51.670;5.624;2023-04-16T02:07:18;10.30;;;4.50;;
63193;SDS011;49289;51.670;5.624;2023-04-16T02:09:06;11.10;;;4.50;;
63193;SDS011;49289;51.670;5.624;2023-04-16T02:10:54;11.10;;;4.60;;
63193;SDS011;49289;51.670;5.624;2023-04-16T02:12:42;13.50;;;4.60;;
63193;SDS011;49289;51.670;5.624;2023-04-16T02:14:30;12.20;;;4.50;;
63193;SDS011;49289;51.670;5.624;2023-04-16T02:16:18;11.60;;;4.20;;
63193;SDS011;49289;51.670;5.624;2023-04-16T02:18:05;10.30;;;4.30;;
63193;SDS011;49289;51.670;5.624;2023-04-16T02:19:52;9.70;;;4.50;;
63193;SDS011;49289;51.670;5.624;2023-04-16T02:21:39;11.20;;;4.30;;
63193;SDS011;49289;51.670;5.624;2023-04-16T02:23:26;12.00;;;4.60;;
63193;SDS011;49289;51.670;5.624;2023-04-16T02:25:13;11.10;;;4.60;;
63193;SDS011;49289;51.670;5.624;2023-04-16T02:27:00;11.00;;;4.40;;
63193;SDS011;49289;51.670;5.624;2023-04-16T02:28:48;9.90;;;4.50;;
63193;SDS011;49289;51.670;5.624;2023-04-16T02:30:35;14.10;;;5.10;;
63193;SDS011;49289;51.670;5.624;2023-04-16T02:32:22;11.90;;;4.80;;
63193;SDS011;49289;51.670;5.624;2023-04-16T02:34:09;11.40;;;4.80;;
63193;SDS011;49289;51.670;5.624;2023-04-16T02:35:56;13.60;;;4.90;;
63193;SDS011;49289;51.670;5.624;2023-04-16T02:37:44;13.60;;;4.40;;
63193;SDS011;49289;51.670;5.624;2023-04-16T02:39:31;10.70;;;4.70;;
63193;SDS011;49289;51.670;5.624;2023-04-16T02:41:19;13.00;;;4.80;;
63193;SDS011;49289;51.670;5.624;2023-04-16T02:43:07;10.50;;;4.80;;
63193;SDS011;49289;51.670;5.624;2023-04-16T02:44:55;10.90;;;4.80;;
63193;SDS011;49289;51.670;5.624;2023-04-16T02:46:43;14.70;;;5.20;;
63193;SDS011;49289;51.670;5.624;2023-04-16T02:48:31;13.70;;;5.10;;
63193;SDS011;49289;51.670;5.624;2023-04-16T02:50:19;12.70;;;5.60;;
63193;SDS011;49289;51.670;5.624;2023-04-16T02:52:07;12.30;;;5.30;;
63193;SDS011;49289;51.670;5.624;2023-04-16T02:53:55;14.90;;;5.00;;
63193;SDS011;49289;51.670;5.624;2023-04-16T02:55:43;16.10;;;5.60;;
63193;SDS011;49289;51.670;5.624;2023-04-16T02:57:35;10.80;;;5.50;;
63193;SDS011;49289;51.670;5.624;2023-04-16T02:59:23;16.70;;;5.80;;
63193;SDS011;49289;51.670;5.624;2023-04-16T03:01:10;14.90;;;5.70;;
63193;SDS011;49289;51.670;5.624;2023-04-16T03:02:58;12.70;;;5.80;;
63193;SDS011;49289;51.670;5.624;2023-04-16T03:04:45;14.40;;;5.60;;
63193;SDS011;49289;51.670;5.624;2023-04-16T03:06:33;12.10;;;5.50;;
63193;SDS011;49289;51.670;5.624;2023-04-16T03:08:20;16.30;;;5.60;;
63193;SDS011;49289;51.670;5.624;2023-04-16T03:10:09;13.00;;;5.70;;
63193;SDS011;49289;51.670;5.624;2023-04-16T03:11:57;12.90;;;6.10;;
63193;SDS011;49289;51.670;5.624;2023-04-16T03:13:44;17.30;;;6.60;;
63193;SDS011;49289;51.670;5.624;2023-04-16T03:15:31;14.20;;;6.60;;
63193;SDS011;49289;51.670;5.624;2023-04-16T03:17:18;18.80;;;6.90;;
63193;SDS011;49289;51.670;5.624;2023-04-16T03:19:06;14.20;;;6.50;;
63193;SDS011;49289;51.670;5.624;2023-04-16T03:20:55;16.60;;;6.10;;
63193;SDS011;49289;51.670;5.624;2023-04-16T03:22:44;14.80;;;6.70;;
63193;SDS011;49289;51.670;5.624;2023-04-16T03:24:31;16.80;;;6.80;;
63193;SDS011;49289;51.670;5.624;2023-04-16T03:26:19;18.20;;;6.40;;
63193;SDS011;49289;51.670;5.624;2023-04-16T03:28:07;16.10;;;6.90;;
63193;SDS011;49289;51.670;5.624;2023-04-16T03:29:55;15.40;;;6.60;;
63193;SDS011;49289;51.670;5.624;2023-04-16T03:31:43;15.60;;;6.80;;
63193;SDS011;49289;51.670;5.624;2023-04-16T03:33:31;16.40;;;6.80;;
63193;SDS011;49289;51.670;5.624;2023-04-16T03:35:19;19.70;;;7.50;;
63193;SDS011;49289;51.670;5.624;2023-04-16T03:37:07;18.80;;;7.30;;
63193;SDS011;49289;51.670;5.624;2023-04-16T03:38:55;20.70;;;7.40;;
63193;SDS011;49289;51.670;5.624;2023-04-16T03:40:43;18.50;;;7.20;;
63193;SDS011;49289;51.670;5.624;2023-04-16T03:42:30;19.60;;;7.20;;
63193;SDS011;49289;51.670;5.624;2023-04-16T03:44:17;21.70;;;7.70;;
63193;SDS011;49289;51.670;5.624;2023-04-16T03:46:04;18.50;;;7.70;;
63193;SDS011;49289;51.670;5.624;2023-04-16T03:47:51;21.70;;;8.30;;
63193;SDS011;49289;51.670;5.624;2023-04-16T03:49:38;20.40;;;8.50;;
63193;SDS011;49289;51.670;5.624;2023-04-16T03:51:25;21.50;;;8.30;;
63193;SDS011;49289;51.670;5.624;2023-04-16T03:53:12;19.30;;;8.80;;
63193;SDS011;49289;51.670;5.624;2023-04-16T03:54:59;24.60;;;8.50;;
63193;SDS011;49289;51.670;5.624;2023-04-16T03:56:46;23.80;;;9.60;;
63193;SDS011;49289;51.670;5.624;2023-04-16T03:58:33;23.70;;;8.90;;
63193;SDS011;49289;51.670;5.624;2023-04-16T04:00:20;20.90;;;9.00;;
63193;SDS011;49289;51.670;5.624;2023-04-16T04:02:07;21.50;;;9.30;;
63193;SDS011;49289;51.670;5.624;2023-04-16T04:03:55;23.50;;;10.00;;
63193;SDS011;49289;51.670;5.624;2023-04-16T04:05:45;22.10;;;9.30;;
63193;SDS011;49289;51.670;5.624;2023-04-16T04:07:32;29.20;;;11.20;;
63193;SDS011;49289;51.670;5.624;2023-04-16T04:09:21;26.10;;;11.20;;
63193;SDS011;49289;51.670;5.624;2023-04-16T04:11:09;29.20;;;10.60;;
63193;SDS011;49289;51.670;5.624;2023-04-16T04:12:57;25.10;;;11.00;;
63193;SDS011;49289;51.670;5.624;2023-04-16T04:14:44;26.10;;;11.10;;
63193;SDS011;49289;51.670;5.624;2023-04-16T04:16:32;26.50;;;11.60;;
63193;SDS011;49289;51.670;5.624;2023-04-16T04:18:20;22.60;;;10.70;;
63193;SDS011;49289;51.670;5.624;2023-04-16T04:20:09;24.30;;;11.60;;
63193;SDS011;49289;51.670;5.624;2023-04-16T04:21:57;25.40;;;11.50;;
63193;SDS011;49289;51.670;5.624;2023-04-16T04:23:45;28.90;;;12.00;;
63193;SDS011;49289;51.670;5.624;2023-04-16T04:25:33;23.20;;;11.20;;
63193;SDS011;49289;51.670;5.624;2023-04-16T04:27:21;25.60;;;11.90;;
63193;SDS011;49289;51.670;5.624;2023-04-16T04:29:09;25.50;;;11.70;;
63193;SDS011;49289;51.670;5.624;2023-04-16T04:30:57;25.60;;;11.70;;
63193;SDS011;49289;51.670;5.624;2023-04-16T04:32:45;28.10;;;12.10;;
63193;SDS011;49289;51.670;5.624;2023-04-16T04:34:33;23.90;;;11.60;;
63193;SDS011;49289;51.670;5.624;2023-04-16T04:36:21;25.70;;;11.70;;
63193;SDS011;49289;51.670;5.624;2023-04-16T04:38:09;30.20;;;11.80;;
63193;SDS011;49289;51.670;5.624;2023-04-16T04:39:57;30.20;;;11.70;;
63193;SDS011;49289;51.670;5.624;2023-04-16T04:41:45;26.60;;;11.50;;
63193;SDS011;49289;51.670;5.624;2023-04-16T04:43:32;26.20;;;11.60;;
63193;SDS011;49289;51.670;5.624;2023-04-16T04:45:19;27.60;;;11.90;;
63193;SDS011;49289;51.670;5.624;2023-04-16T04:47:06;24.40;;;10.80;;
63193;SDS011;49289;51.670;5.624;2023-04-16T04:48:53;26.50;;;12.40;;
63193;SDS011;49289;51.670;5.624;2023-04-16T04:50:40;25.40;;;11.50;;
63193;SDS011;49289;51.670;5.624;2023-04-16T04:52:27;26.20;;;11.70;;
63193;SDS011;49289;51.670;5.624;2023-04-16T04:54:14;31.70;;;11.90;;
63193;SDS011;49289;51.670;5.624;2023-04-16T04:56:01;23.40;;;11.80;;
63193;SDS011;49289;51.670;5.624;2023-04-16T04:57:49;27.20;;;11.80;;
63193;SDS011;49289;51.670;5.624;2023-04-16T04:59:36;25.10;;;11.40;;
63193;SDS011;49289;51.670;5.624;2023-04-16T05:01:23;28.20;;;11.80;;
63193;SDS011;49289;51.670;5.624;2023-04-16T05:03:10;28.60;;;11.90;;
63193;SDS011;49289;51.670;5.624;2023-04-16T05:04:57;28.40;;;11.30;;
63193;SDS011;49289;51.670;5.624;2023-04-16T05:06:44;26.40;;;11.60;;
63193;SDS011;49289;51.670;5.624;2023-04-16T05:08:31;23.00;;;10.70;;
63193;SDS011;49289;51.670;5.624;2023-04-16T05:10:18;29.90;;;11.80;;
63193;SDS011;49289;51.670;5.624;2023-04-16T05:12:06;27.00;;;11.00;;
63193;SDS011;49289;51.670;5.624;2023-04-16T05:13:54;31.30;;;11.00;;
63193;SDS011;49289;51.670;5.624;2023-04-16T05:15:43;23.50;;;11.50;;
63193;SDS011;49289;51.670;5.624;2023-04-16T05:17:30;27.60;;;11.40;;
63193;SDS011;49289;51.670;5.624;2023-04-16T05:19:17;26.00;;;11.30;;
63193;SDS011;49289;51.670;5.624;2023-04-16T05:21:04;26.90;;;11.20;;
63193;SDS011;49289;51.670;5.624;2023-04-16T05:22:51;24.40;;;11.30;;
63193;SDS011;49289;51.670;5.624;2023-04-16T05:24:38;29.30;;;11.40;;
63193;SDS011;49289;51.670;5.624;2023-04-16T05:26:25;27.80;;;12.30;;
63193;SDS011;49289;51.670;5.624;2023-04-16T05:28:12;22.60;;;11.30;;
63193;SDS011;49289;51.670;5.624;2023-04-16T05:29:59;25.50;;;10.90;;
63193;SDS011;49289;51.670;5.624;2023-04-16T05:31:46;27.90;;;11.10;;
63193;SDS011;49289;51.670;5.624;2023-04-16T05:33:33;26.40;;;11.40;;
63193;SDS011;49289;51.670;5.624;2023-04-16T05:35:20;24.30;;;11.10;;
63193;SDS011;49289;51.670;5.624;2023-04-16T05:37:07;27.90;;;11.60;;
63193;SDS011;49289;51.670;5.624;2023-04-16T05:38:54;30.20;;;11.60;;
63193;SDS011;49289;51.670;5.624;2023-04-16T05:40:41;27.40;;;11.60;;
63193;SDS011;49289;51.670;5.624;2023-04-16T05:42:28;23.90;;;11.50;;
63193;SDS011;49289;51.670;5.624;2023-04-16T05:44:16;30.00;;;11.90;;
63193;SDS011;49289;51.670;5.624;2023-04-16T05:46:03;29.40;;;12.10;;
63193;SDS011;49289;51.670;5.624;2023-04-16T05:47:51;26.50;;;11.40;;
63193;SDS011;49289;51.670;5.624;2023-04-16T05:49:39;27.50;;;11.90;;
63193;SDS011;49289;51.670;5.624;2023-04-16T05:51:27;29.40;;;12.20;;
63193;SDS011;49289;51.670;5.624;2023-04-16T05:53:15;26.30;;;12.10;;
63193;SDS011;49289;51.670;5.624;2023-04-16T05:55:02;26.30;;;12.30;;
63193;SDS011;49289;51.670;5.624;2023-04-16T05:56:50;29.40;;;13.00;;
63193;SDS011;49289;51.670;5.624;2023-04-16T05:58:37;31.40;;;12.90;;
63193;SDS011;49289;51.670;5.624;2023-04-16T06:00:24;32.30;;;13.00;;
63193;SDS011;49289;51.670;5.624;2023-04-16T06:02:11;30.50;;;12.80;;
63193;SDS011;49289;51.670;5.624;2023-04-16T06:03:58;27.10;;;12.30;;
63193;SDS011;49289;51.670;5.624;2023-04-16T06:05:45;28.30;;;12.60;;
63193;SDS011;49289;51.670;5.624;2023-04-16T06:07:32;26.70;;;12.10;;
63193;SDS011;49289;51.670;5.624;2023-04-16T06:09:19;30.90;;;12.60;;
63193;SDS011;49289;51.670;5.624;2023-04-16T06:11:06;30.20;;;12.20;;
63193;SDS011;49289;51.670;5.624;2023-04-16T06:12:53;28.50;;;12.00;;
63193;SDS011;49289;51.670;5.624;2023-04-16T06:14:40;29.30;;;12.70;;
63193;SDS011;49289;51.670;5.624;2023-04-16T06:16:27;28.90;;;12.00;;
63193;SDS011;49289;51.670;5.624;2023-04-16T06:18:14;27.70;;;12.10;;
63193;SDS011;49289;51.670;5.624;2023-04-16T06:20:01;34.80;;;12.50;;
63193;SDS011;49289;51.670;5.624;2023-04-16T06:21:48;32.40;;;13.00;;
63193;SDS011;49289;51.670;5.624;2023-04-16T06:23:35;33.90;;;12.70;;
63193;SDS011;49289;51.670;5.624;2023-04-16T06:25:22;30.30;;;12.40;;
63193;SDS011;49289;51.670;5.624;2023-04-16T06:27:10;36.60;;;12.70;;
63193;SDS011;49289;51.670;5.624;2023-04-16T06:28:59;29.40;;;12.20;;
63193;SDS011;49289;51.670;5.624;2023-04-16T06:30:46;27.90;;;12.70;;
63193;SDS011;49289;51.670;5.624;2023-04-16T06:32:34;29.50;;;13.10;;
63193;SDS011;49289;51.670;5.624;2023-04-16T06:34:22;27.60;;;12.60;;
63193;SDS011;49289;51.670;5.624;2023-04-16T06:36:11;29.00;;;12.10;;
63193;SDS011;49289;51.670;5.624;2023-04-16T06:37:58;30.30;;;12.10;;
63193;SDS011;49289;51.670;5.624;2023-04-16T06:39:46;33.50;;;13.00;;
63193;SDS011;49289;51.670;5.624;2023-04-16T06:41:34;37.40;;;13.30;;
63193;SDS011;49289;51.670;5.624;2023-04-16T06:43:22;29.30;;;12.10;;
63193;SDS011;49289;51.670;5.624;2023-04-16T06:45:12;27.40;;;12.10;;
63193;SDS011;49289;51.670;5.624;2023-04-16T06:47:00;29.10;;;11.90;;
63193;SDS011;49289;51.670;5.624;2023-04-16T06:48:47;27.40;;;11.50;;
63193;SDS011;49289;51.670;5.624;2023-04-16T06:50:36;25.90;;;11.80;;
63193;SDS011;49289;51.670;5.624;2023-04-16T06:52:24;26.60;;;11.30;;
63193;SDS011;49289;51.670;5.624;2023-04-16T06:54:12;22.50;;;11.40;;
63193;SDS011;49289;51.670;5.624;2023-04-16T06:56:00;24.60;;;11.30;;
63193;SDS011;49289;51.670;5.624;2023-04-16T06:57:48;27.50;;;12.00;;
63193;SDS011;49289;51.670;5.624;2023-04-16T06:59:36;22.60;;;11.50;;
63193;SDS011;49289;51.670;5.624;2023-04-16T07:01:24;25.80;;;11.60;;
63193;SDS011;49289;51.670;5.624;2023-04-16T07:03:12;25.60;;;11.60;;
63193;SDS011;49289;51.670;5.624;2023-04-16T07:05:00;26.00;;;11.00;;
63193;SDS011;49289;51.670;5.624;2023-04-16T07:06:48;23.40;;;10.80;;
63193;SDS011;49289;51.670;5.624;2023-04-16T07:08:36;26.60;;;11.10;;
63193;SDS011;49289;51.670;5.624;2023-04-16T07:10:23;25.80;;;11.20;;
63193;SDS011;49289;51.670;5.624;2023-04-16T07:12:11;22.20;;;11.60;;
63193;SDS011;49289;51.670;5.624;2023-04-16T07:13:59;25.90;;;11.10;;
63193;SDS011;49289;51.670;5.624;2023-04-16T07:15:47;27.60;;;11.50;;
63193;SDS011;49289;51.670;5.624;2023-04-16T07:17:35;25.30;;;11.80;;
63193;SDS011;49289;51.670;5.624;2023-04-16T07:19:23;25.80;;;11.90;;
63193;SDS011;49289;51.670;5.624;2023-04-16T07:21:11;24.60;;;11.40;;
63193;SDS011;49289;51.670;5.624;2023-04-16T07:22:59;24.80;;;11.90;;
63193;SDS011;49289;51.670;5.624;2023-04-16T07:24:47;21.60;;;11.30;;
63193;SDS011;49289;51.670;5.624;2023-04-16T07:26:35;26.40;;;11.70;;
63193;SDS011;49289;51.670;5.624;2023-04-16T07:28:22;19.80;;;11.60;;
63193;SDS011;49289;51.670;5.624;2023-04-16T07:30:10;27.50;;;11.90;;
63193;SDS011;49289;51.670;5.624;2023-04-16T07:31:57;28.40;;;12.10;;
63193;SDS011;49289;51.670;5.624;2023-04-16T07:33:44;24.20;;;11.40;;
63193;SDS011;49289;51.670;5.624;2023-04-16T07:35:31;21.10;;;10.90;;
63193;SDS011;49289;51.670;5.624;2023-04-16T07:37:18;23.20;;;11.40;;
63193;SDS011;49289;51.670;5.624;2023-04-16T07:39:05;21.90;;;11.70;;
63193;SDS011;49289;51.670;5.624;2023-04-16T07:40:52;19.10;;;10.80;;
63193;SDS011;49289;51.670;5.624;2023-04-16T07:42:40;22.60;;;11.60;;
63193;SDS011;49289;51.670;5.624;2023-04-16T07:44:28;19.40;;;10.90;;
63193;SDS011;49289;51.670;5.624;2023-04-16T07:46:16;24.60;;;11.10;;
63193;SDS011;49289;51.670;5.624;2023-04-16T07:48:04;20.00;;;11.00;;
63193;SDS011;49289;51.670;5.624;2023-04-16T07:49:52;20.70;;;10.90;;
63193;SDS011;49289;51.670;5.624;2023-04-16T07:51:40;24.00;;;11.30;;
63193;SDS011;49289;51.670;5.624;2023-04-16T07:53:28;24.00;;;10.80;;
63193;SDS011;49289;51.670;5.624;2023-04-16T07:55:15;23.70;;;11.90;;
63193;SDS011;49289;51.670;5.624;2023-04-16T07:57:02;22.60;;;11.60;;
63193;SDS011;49289;51.670;5.624;2023-04-16T07:58:49;24.70;;;12.10;;
63193;SDS011;49289;51.670;5.624;2023-04-16T08:00:36;25.50;;;12.00;;
63193;SDS011;49289;51.670;5.624;2023-04-16T08:02:24;25.20;;;11.80;;
63193;SDS011;49289;51.670;5.624;2023-04-16T08:04:12;25.50;;;11.70;;
63193;SDS011;49289;51.670;5.624;2023-04-16T08:06:00;21.60;;;11.50;;
63193;SDS011;49289;51.670;5.624;2023-04-16T08:07:49;22.20;;;10.50;;
63193;SDS011;49289;51.670;5.624;2023-04-16T08:09:42;20.10;;;10.30;;
63193;SDS011;49289;51.670;5.624;2023-04-16T08:11:31;20.20;;;10.30;;
63193;SDS011;49289;51.670;5.624;2023-04-16T08:13:18;24.20;;;10.70;;
63193;SDS011;49289;51.670;5.624;2023-04-16T08:15:05;21.50;;;10.90;;
63193;SDS011;49289;51.670;5.624;2023-04-16T08:16:54;20.90;;;10.90;;
63193;SDS011;49289;51.670;5.624;2023-04-16T08:18:42;24.20;;;11.80;;
63193;SDS011;49289;51.670;5.624;2023-04-16T08:20:30;22.10;;;11.20;;
63193;SDS011;49289;51.670;5.624;2023-04-16T08:22:17;24.30;;;11.50;;
63193;SDS011;49289;51.670;5.624;2023-04-16T08:24:05;25.40;;;12.40;;
63193;SDS011;49289;51.670;5.624;2023-04-16T08:25:53;23.10;;;10.90;;
63193;SDS011;49289;51.670;5.624;2023-04-16T08:27:41;22.50;;;11.60;;
63193;SDS011;49289;51.670;5.624;2023-04-16T08:29:29;20.10;;;11.40;;
63193;SDS011;49289;51.670;5.624;2023-04-16T08:31:17;25.40;;;12.10;;
63193;SDS011;49289;51.670;5.624;2023-04-16T08:33:04;22.10;;;11.80;;
63193;SDS011;49289;51.670;5.624;2023-04-16T08:34:51;20.60;;;11.10;;
63193;SDS011;49289;51.670;5.624;2023-04-16T08:36:38;25.60;;;12.20;;
63193;SDS011;49289;51.670;5.624;2023-04-16T08:38:25;23.00;;;12.00;;
63193;SDS011;49289;51.670;5.624;2023-04-16T08:40:12;24.00;;;12.90;;
63193;SDS011;49289;51.670;5.624;2023-04-16T08:42:00;25.30;;;12.60;;
63193;SDS011;49289;51.670;5.624;2023-04-16T08:43:49;21.60;;;11.70;;
63193;SDS011;49289;51.670;5.624;2023-04-16T08:45:36;20.90;;;11.80;;
63193;SDS011;49289;51.670;5.624;2023-04-16T08:47:23;23.30;;;12.40;;
63193;SDS011;49289;51.670;5.624;2023-04-16T08:49:10;19.20;;;12.20;;
63193;SDS011;49289;51.670;5.624;2023-04-16T08:50:57;25.60;;;12.90;;
63193;SDS011;49289;51.670;5.624;2023-04-16T08:52:45;23.70;;;12.20;;
63193;SDS011;49289;51.670;5.624;2023-04-16T08:54:37;23.50;;;12.50;;
63193;SDS011;49289;51.670;5.624;2023-04-16T08:56:24;19.80;;;12.20;;
63193;SDS011;49289;51.670;5.624;2023-04-16T08:58:13;25.40;;;12.40;;
63193;SDS011;49289;51.670;5.624;2023-04-16T09:00:01;27.30;;;13.30;;
63193;SDS011;49289;51.670;5.624;2023-04-16T09:01:48;26.60;;;13.70;;
63193;SDS011;49289;51.670;5.624;2023-04-16T09:03:35;27.60;;;13.20;;
63193;SDS011;49289;51.670;5.624;2023-04-16T09:05:22;25.40;;;13.70;;
63193;SDS011;49289;51.670;5.624;2023-04-16T09:06:54;23.50;;;12.90;;
63193;SDS011;49289;51.670;5.624;2023-04-16T09:08:41;28.60;;;13.70;;
63193;SDS011;49289;51.670;5.624;2023-04-16T09:10:28;25.50;;;13.60;;
63193;SDS011;49289;51.670;5.624;2023-04-16T09:12:18;25.00;;;13.50;;
63193;SDS011;49289;51.670;5.624;2023-04-16T09:14:07;23.80;;;13.30;;
63193;SDS011;49289;51.670;5.624;2023-04-16T09:15:56;26.80;;;14.40;;
63193;SDS011;49289;51.670;5.624;2023-04-16T09:17:43;25.10;;;14.00;;
63193;SDS011;49289;51.670;5.624;2023-04-16T09:19:31;27.50;;;13.70;;
63193;SDS011;49289;51.670;5.624;2023-04-16T09:21:20;23.30;;;13.30;;
63193;SDS011;49289;51.670;5.624;2023-04-16T09:22:52;24.20;;;14.20;;
63193;SDS011;49289;51.670;5.624;2023-04-16T09:24:40;28.00;;;13.90;;
63193;SDS011;49289;51.670;5.624;2023-04-16T09:26:28;28.70;;;14.60;;
63193;SDS011;49289;51.670;5.624;2023-04-16T09:28:17;30.30;;;14.60;;
63193;SDS011;49289;51.670;5.624;2023-04-16T09:30:26;27.80;;;14.60;;
63193;SDS011;49289;51.670;5.624;2023-04-16T09:32:12;27.70;;;15.10;;
63193;SDS011;49289;51.670;5.624;2023-04-16T09:34:05;25.60;;;14.00;;
63193;SDS011;49289;51.670;5.624;2023-04-16T09:35:52;27.20;;;14.40;;
63193;SDS011;49289;51.670;5.624;2023-04-16T09:37:40;28.60;;;14.20;;
63193;SDS011;49289;51.670;5.624;2023-04-16T09:39:28;31.30;;;15.10;;
63193;SDS011;49289;51.670;5.624;2023-04-16T09:41:16;28.50;;;14.10;;
63193;SDS011;49289;51.670;5.624;2023-04-16T09:43:06;26.30;;;14.80;;
63193;SDS011;49289;51.670;5.624;2023-04-16T09:44:54;28.30;;;14.10;;
63193;SDS011;49289;51.670;5.624;2023-04-16T09:46:41;26.00;;;13.70;;
63193;SDS011;49289;51.670;5.624;2023-04-16T09:48:34;28.50;;;14.10;;
63193;SDS011;49289;51.670;5.624;2023-04-16T09:50:22;26.70;;;13.70;;
63193;SDS011;49289;51.670;5.624;2023-04-16T09:52:09;23.10;;;13.10;;
63193;SDS011;49289;51.670;5.624;2023-04-16T09:53:57;28.90;;;13.90;;
63193;SDS011;49289;51.670;5.624;2023-04-16T09:55:47;26.10;;;14.40;;
63193;SDS011;49289;51.670;5.624;2023-04-16T09:57:35;27.60;;;14.60;;
63193;SDS011;49289;51.670;5.624;2023-04-16T09:59:22;26.30;;;14.10;;
63193;SDS011;49289;51.670;5.624;2023-04-16T10:01:10;28.40;;;14.90;;
63193;SDS011;49289;51.670;5.624;2023-04-16T10:03:07;30.60;;;14.60;;
63193;SDS011;49289;51.670;5.624;2023-04-16T10:04:57;29.00;;;14.80;;
63193;SDS011;49289;51.670;5.624;2023-04-16T10:06:45;25.00;;;14.10;;
63193;SDS011;49289;51.670;5.624;2023-04-16T10:08:34;23.50;;;13.60;;
63193;SDS011;49289;51.670;5.624;2023-04-16T10:10:23;27.50;;;14.70;;
63193;SDS011;49289;51.670;5.624;2023-04-16T10:12:11;26.90;;;13.80;;
63193;SDS011;49289;51.670;5.624;2023-04-16T10:13:58;26.20;;;14.50;;
63193;SDS011;49289;51.670;5.624;2023-04-16T10:15:45;23.80;;;14.00;;
63193;SDS011;49289;51.670;5.624;2023-04-16T10:17:32;28.10;;;14.30;;
63193;SDS011;49289;51.670;5.624;2023-04-16T10:19:19;25.10;;;13.70;;
63193;SDS011;49289;51.670;5.624;2023-04-16T10:21:06;23.90;;;13.40;;
63193;SDS011;49289;51.670;5.624;2023-04-16T10:22:53;27.30;;;15.00;;
63193;SDS011;49289;51.670;5.624;2023-04-16T10:24:42;26.60;;;13.80;;
63193;SDS011;49289;51.670;5.624;2023-04-16T10:26:30;27.90;;;14.60;;
63193;SDS011;49289;51.670;5.624;2023-04-16T10:28:21;29.40;;;15.10;;
63193;SDS011;49289;51.670;5.624;2023-04-16T10:30:08;27.30;;;14.60;;
63193;SDS011;49289;51.670;5.624;2023-04-16T10:31:56;23.10;;;13.90;;
63193;SDS011;49289;51.670;5.624;2023-04-16T10:33:44;26.60;;;14.50;;